sensor_id;sensor_type;location;lat;lon;timestamp;pressure;altitude;pressure_sealevel;temperature;humidity
19447;BME280;9862;49.462;11.054;2023-03-14T00:02:21;96333.00;;;11.57;100.00
19447;BME280;9862;49.462;11.054;2023-03-14T00:04:48;96339.66;;;11.54;100.00
19447;BME280;9862;49.462;11.054;2023-03-14T00:07:14;96341.44;;;11.43;100.00
19447;BME280;9862;49.462;11.054;2023-03-14T00:09:41;96343.03;;;11.44;100.00
19447;BME280;9862;49.462;11.054;2023-03-14T00:12:08;96346.22;;;11.41;100.00
19447;BME280;9862;49.462;11.054;2023-03-14T00:14:36;96352.03;;;11.38;100.00
19447;BME280;9862;49.462;11.054;2023-03-14T00:17:03;96345.88;;;11.33;100.00
19447;BME280;9862;49.462;11.054;2023-03-14T00:19:29;96348.84;;;11.36;100.00
19447;BME280;9862;49.462;11.054;2023-03-14T00:21:56;96346.72;;;11.38;100.00
19447;BME280;9862;49.462;11.054;2023-03-14T00:24:23;96352.47;;;11.25;100.00
19447;BME280;9862;49.462;11.054;2023-03-14T00:26:49;96359.47;;;11.31;100.00
19447;BME280;9862;49.462;11.054;2023-03-14T00:29:16;96363.13;;;11.25;100.00
19447;BME280;9862;49.462;11.054;2023-03-14T00:31:43;96360.19;;;11.27;100.00
19447;BME280;9862;49.462;11.054;2023-03-14T00:34:10;96366.03;;;11.24;100.00
19447;BME280;9862;49.462;11.054;2023-03-14T00:36:36;96381.75;;;11.20;100.00
19447;BME280;9862;49.462;11.054;2023-03-14T00:39:03;96381.50;;;11.27;100.00
19447;BME280;9862;49.462;11.054;2023-03-14T00:41:30;96396.19;;;11.29;100.00
19447;BME280;9862;49.462;11.054;2023-03-14T00:43:56;96388.16;;;11.24;100.00
19447;BME280;9862;49.462;11.054;2023-03-14T00:46:23;96387.59;;;11.22;100.00
19447;BME280;9862;49.462;11.054;2023-03-14T00:48:50;96403.31;;;11.24;100.00
19447;BME280;9862;49.462;11.054;2023-03-14T00:51:17;96402.56;;;11.28;100.00
19447;BME280;9862;49.462;11.054;2023-03-14T00:53:44;96403.13;;;11.30;100.00
19447;BME280;9862;49.462;11.054;2023-03-14T00:56:12;96407.25;;;11.16;100.00
19447;BME280;9862;49.462;11.054;2023-03-14T00:58:39;96408.09;;;11.22;100.00
19447;BME280;9862;49.462;11.054;2023-03-14T01:01:06;96402.53;;;11.23;100.00
19447;BME280;9862;49.462;11.054;2023-03-14T01:03:33;96405.44;;;11.22;100.00
19447;BME280;9862;49.462;11.054;2023-03-14T01:06:12;96396.59;;;11.16;100.00
19447;BME280;9862;49.462;11.054;2023-03-14T01:08:39;96381.41;;;11.16;100.00
19447;BME280;9862;49.462;11.054;2023-03-14T01:11:07;96364.97;;;11.20;100.00
19447;BME280;9862;49.462;11.054;2023-03-14T01:13:34;96346.56;;;11.18;100.00
19447;BME280;9862;49.462;11.054;2023-03-14T01:16:02;96332.19;;;11.19;100.00
19447;BME280;9862;49.462;11.054;2023-03-14T01:18:30;96345.59;;;11.29;100.00
19447;BME280;9862;49.462;11.054;2023-03-14T01:20:56;96344.03;;;11.33;100.00
19447;BME280;9862;49.462;11.054;2023-03-14T01:23:24;96341.91;;;11.35;100.00
19447;BME280;9862;49.462;11.054;2023-03-14T01:25:51;96361.88;;;11.38;100.00
19447;BME280;9862;49.462;11.054;2023-03-14T01:28:17;96346.69;;;11.33;100.00
19447;BME280;9862;49.462;11.054;2023-03-14T01:30:44;96325.91;;;11.35;100.00
19447;BME280;9862;49.462;11.054;2023-03-14T01:33:11;96316.88;;;11.36;100.00
19447;BME280;9862;49.462;11.054;2023-03-14T01:35:38;96312.34;;;11.37;100.00
19447;BME280;9862;49.462;11.054;2023-03-14T01:38:05;96318.47;;;11.37;100.00
19447;BME280;9862;49.462;11.054;2023-03-14T01:40:32;96322.50;;;11.40;100.00
19447;BME280;9862;49.462;11.054;2023-03-14T01:43:06;96324.94;;;11.46;100.00
19447;BME280;9862;49.462;11.054;2023-03-14T01:48:53;96334.03;;;11.51;100.00
19447;BME280;9862;49.462;11.054;2023-03-14T01:51:25;96335.91;;;11.50;100.00
19447;BME280;9862;49.462;11.054;2023-03-14T01:53:56;96335.84;;;11.45;100.00
19447;BME280;9862;49.462;11.054;2023-03-14T01:56:27;96347.97;;;11.63;100.00
19447;BME280;9862;49.462;11.054;2023-03-14T01:58:54;96354.63;;;11.60;100.00
19447;BME280;9862;49.462;11.054;2023-03-14T02:01:24;96366.00;;;11.51;100.00
19447;BME280;9862;49.462;11.054;2023-03-14T02:03:54;96366.00;;;11.51;100.00
19447;BME280;9862;49.462;11.054;2023-03-14T02:06:23;96367.53;;;11.41;100.00
19447;BME280;9862;49.462;11.054;2023-03-14T02:08:51;96375.97;;;11.33;100.00
19447;BME280;9862;49.462;11.054;2023-03-14T02:11:18;96362.94;;;11.32;100.00
19447;BME280;9862;49.462;11.054;2023-03-14T02:13:46;96364.31;;;11.39;100.00
19447;BME280;9862;49.462;11.054;2023-03-14T02:16:14;96360.06;;;11.43;100.00
19447;BME280;9862;49.462;11.054;2023-03-14T02:18:40;96349.16;;;11.40;100.00
19447;BME280;9862;49.462;11.054;2023-03-14T02:21:13;96335.63;;;11.52;100.00
19447;BME280;9862;49.462;11.054;2023-03-14T02:23:47;96336.22;;;11.59;100.00
19447;BME280;9862;49.462;11.054;2023-03-14T02:26:20;96320.72;;;11.56;100.00
19447;BME280;9862;49.462;11.054;2023-03-14T02:28:51;96317.56;;;11.59;100.00
19447;BME280;9862;49.462;11.054;2023-03-14T02:31:18;96318.91;;;11.61;100.00
19447;BME280;9862;49.462;11.054;2023-03-14T02:33:46;96304.53;;;11.62;100.00
19447;BME280;9862;49.462;11.054;2023-03-14T02:36:14;96317.06;;;11.67;100.00
19447;BME280;9862;49.462;11.054;2023-03-14T02:38:46;96311.72;;;11.62;100.00
19447;BME280;9862;49.462;11.054;2023-03-14T02:41:13;96310.91;;;11.61;100.00
19447;BME280;9862;49.462;11.054;2023-03-14T02:43:40;96294.72;;;11.73;100.00
19447;BME280;9862;49.462;11.054;2023-03-14T02:46:10;96294.72;;;11.68;100.00
19447;BME280;9862;49.462;11.054;2023-03-14T02:48:40;96299.00;;;11.74;100.00
19447;BME280;9862;49.462;11.054;2023-03-14T02:51:08;96293.94;;;11.72;100.00
19447;BME280;9862;49.462;11.054;2023-03-14T02:53:36;96286.72;;;11.73;100.00
19447;BME280;9862;49.462;11.054;2023-03-14T02:56:04;96281.47;;;11.83;100.00
19447;BME280;9862;49.462;11.054;2023-03-14T02:58:30;96280.88;;;11.76;100.00
19447;BME280;9862;49.462;11.054;2023-03-14T03:00:57;96273.41;;;11.73;100.00
19447;BME280;9862;49.462;11.054;2023-03-14T03:03:25;96267.00;;;11.74;100.00
19447;BME280;9862;49.462;11.054;2023-03-14T03:05:53;96270.78;;;11.78;100.00
19447;BME280;9862;49.462;11.054;2023-03-14T03:08:22;96272.38;;;11.79;100.00
19447;BME280;9862;49.462;11.054;2023-03-14T03:10:49;96278.59;;;11.90;100.00
19447;BME280;9862;49.462;11.054;2023-03-14T03:13:17;96275.19;;;12.04;100.00
19447;BME280;9862;49.462;11.054;2023-03-14T03:15:45;96279.41;;;11.95;100.00
19447;BME280;9862;49.462;11.054;2023-03-14T03:18:12;96276.69;;;11.85;100.00
19447;BME280;9862;49.462;11.054;2023-03-14T03:20:40;96266.56;;;11.82;100.00
19447;BME280;9862;49.462;11.054;2023-03-14T03:23:06;96269.22;;;11.82;100.00
19447;BME280;9862;49.462;11.054;2023-03-14T03:25:33;96268.69;;;11.85;100.00
19447;BME280;9862;49.462;11.054;2023-03-14T03:28:01;96245.25;;;11.82;100.00
19447;BME280;9862;49.462;11.054;2023-03-14T03:30:32;96250.84;;;11.86;100.00
19447;BME280;9862;49.462;11.054;2023-03-14T03:32:59;96252.22;;;11.93;100.00
19447;BME280;9862;49.462;11.054;2023-03-14T03:35:26;96243.63;;;11.81;100.00
19447;BME280;9862;49.462;11.054;2023-03-14T03:37:53;96233.25;;;11.85;100.00
19447;BME280;9862;49.462;11.054;2023-03-14T03:40:20;96247.91;;;11.82;100.00
19447;BME280;9862;49.462;11.054;2023-03-14T03:42:46;96255.34;;;11.80;100.00
19447;BME280;9862;49.462;11.054;2023-03-14T03:48:35;96251.56;;;11.71;100.00
19447;BME280;9862;49.462;11.054;2023-03-14T03:51:02;96258.47;;;11.72;100.00
19447;BME280;9862;49.462;11.054;2023-03-14T03:53:30;96258.44;;;11.67;100.00
19447;BME280;9862;49.462;11.054;2023-03-14T03:55:57;96261.09;;;11.67;100.00
19447;BME280;9862;49.462;11.054;2023-03-14T03:58:23;96244.63;;;11.70;100.00
19447;BME280;9862;49.462;11.054;2023-03-14T04:00:50;96234.47;;;11.67;100.00
19447;BME280;9862;49.462;11.054;2023-03-14T04:03:16;96237.13;;;11.67;100.00
19447;BME280;9862;49.462;11.054;2023-03-14T04:05:43;96230.19;;;11.66;100.00
19447;BME280;9862;49.462;11.054;2023-03-14T04:08:10;96228.34;;;11.66;100.00
19447;BME280;9862;49.462;11.054;2023-03-14T04:10:37;96221.72;;;11.69;100.00
19447;BME280;9862;49.462;11.054;2023-03-14T04:13:04;96219.84;;;11.69;100.00
19447;BME280;9862;49.462;11.054;2023-03-14T04:15:30;96215.00;;;11.66;100.00
19447;BME280;9862;49.462;11.054;2023-03-14T04:17:57;96209.94;;;11.65;100.00
19447;BME280;9862;49.462;11.054;2023-03-14T04:20:24;96212.63;;;11.65;100.00
19447;BME280;9862;49.462;11.054;2023-03-14T04:22:51;96208.09;;;11.65;100.00
19447;BME280;9862;49.462;11.054;2023-03-14T04:25:17;96206.47;;;11.64;100.00
19447;BME280;9862;49.462;11.054;2023-03-14T04:27:46;96188.09;;;11.63;100.00
19447;BME280;9862;49.462;11.054;2023-03-14T04:30:13;96187.56;;;11.66;100.00
19447;BME280;9862;49.462;11.054;2023-03-14T04:32:40;96180.13;;;11.68;100.00
19447;BME280;9862;49.462;11.054;2023-03-14T04:35:07;96186.53;;;11.72;100.00
19447;BME280;9862;49.462;11.054;2023-03-14T04:37:33;96194.00;;;11.70;100.00
19447;BME280;9862;49.462;11.054;2023-03-14T04:40:00;96189.16;;;11.67;100.00
19447;BME280;9862;49.462;11.054;2023-03-14T04:42:29;96196.63;;;11.60;100.00
19447;BME280;9862;49.462;11.054;2023-03-14T04:44:57;96197.91;;;11.57;100.00
19447;BME280;9862;49.462;11.054;2023-03-14T04:47:24;96198.50;;;11.64;100.00
19447;BME280;9862;49.462;11.054;2023-03-14T04:49:50;96200.34;;;11.64;100.00
19447;BME280;9862;49.462;11.054;2023-03-14T04:52:17;96197.44;;;11.65;100.00
19447;BME280;9862;49.462;11.054;2023-03-14T04:54:43;96198.25;;;11.71;100.00
19447;BME280;9862;49.462;11.054;2023-03-14T04:57:10;96207.84;;;11.72;100.00
19447;BME280;9862;49.462;11.054;2023-03-14T04:59:37;96204.66;;;11.70;100.00
19447;BME280;9862;49.462;11.054;2023-03-14T05:02:04;96208.09;;;11.65;100.00
19447;BME280;9862;49.462;11.054;2023-03-14T05:04:31;96200.03;;;11.55;100.00
19447;BME280;9862;49.462;11.054;2023-03-14T05:06:59;96211.00;;;11.59;100.00
19447;BME280;9862;49.462;11.054;2023-03-14T05:09:26;96211.81;;;11.59;100.00
19447;BME280;9862;49.462;11.054;2023-03-14T05:11:52;96216.03;;;11.50;100.00
19447;BME280;9862;49.462;11.054;2023-03-14T05:14:19;96212.50;;;11.39;100.00
19447;BME280;9862;49.462;11.054;2023-03-14T05:16:45;96206.16;;;11.51;100.00
19447;BME280;9862;49.462;11.054;2023-03-14T05:19:13;96206.69;;;11.53;100.00
19447;BME280;9862;49.462;11.054;2023-03-14T05:21:40;96190.72;;;11.53;100.00
19447;BME280;9862;49.462;11.054;2023-03-14T05:24:06;96188.59;;;11.50;100.00
19447;BME280;9862;49.462;11.054;2023-03-14T05:26:33;96181.88;;;11.42;100.00
19447;BME280;9862;49.462;11.054;2023-03-14T05:28:59;96187.47;;;11.40;100.00
19447;BME280;9862;49.462;11.054;2023-03-14T05:31:26;96176.19;;;11.23;100.00
19447;BME280;9862;49.462;11.054;2023-03-14T05:33:53;96169.53;;;11.21;100.00
19447;BME280;9862;49.462;11.054;2023-03-14T05:36:20;96171.41;;;11.25;100.00
19447;BME280;9862;49.462;11.054;2023-03-14T05:38:47;96174.59;;;11.27;100.00
19447;BME280;9862;49.462;11.054;2023-03-14T05:41:13;96161.03;;;11.29;100.00
19447;BME280;9862;49.462;11.054;2023-03-14T05:43:40;96157.06;;;11.36;100.00
19447;BME280;9862;49.462;11.054;2023-03-14T05:46:06;96156.53;;;11.29;100.00
19447;BME280;9862;49.462;11.054;2023-03-14T05:48:33;96149.34;;;11.30;100.00
19447;BME280;9862;49.462;11.054;2023-03-14T05:50:59;96149.88;;;11.32;100.00
19447;BME280;9862;49.462;11.054;2023-03-14T05:53:27;96153.66;;;11.41;100.00
19447;BME280;9862;49.462;11.054;2023-03-14T05:55:57;96150.94;;;11.31;100.00
19447;BME280;9862;49.462;11.054;2023-03-14T05:58:24;96150.63;;;11.27;100.00
19447;BME280;9862;49.462;11.054;2023-03-14T06:00:51;96151.22;;;11.29;100.00
19447;BME280;9862;49.462;11.054;2023-03-14T06:03:17;96154.91;;;11.28;100.00
19447;BME280;9862;49.462;11.054;2023-03-14T06:05:44;96153.34;;;11.32;100.00
19447;BME280;9862;49.462;11.054;2023-03-14T06:08:10;96156.81;;;11.33;100.00
19447;BME280;9862;49.462;11.054;2023-03-14T06:10:38;96149.13;;;11.41;100.00
19447;BME280;9862;49.462;11.054;2023-03-14T06:13:05;96152.34;;;11.49;100.00
19447;BME280;9862;49.462;11.054;2023-03-14T06:15:31;96156.63;;;11.50;100.00
19447;BME280;9862;49.462;11.054;2023-03-14T06:17:58;96152.84;;;11.40;100.00
19447;BME280;9862;49.462;11.054;2023-03-14T06:20:25;96166.69;;;11.42;100.00
19447;BME280;9862;49.462;11.054;2023-03-14T06:22:52;96158.47;;;11.49;100.00
19447;BME280;9862;49.462;11.054;2023-03-14T06:25:18;96154.19;;;11.48;100.00
19447;BME280;9862;49.462;11.054;2023-03-14T06:27:46;96152.34;;;11.54;100.00
19447;BME280;9862;49.462;11.054;2023-03-14T06:30:13;96143.84;;;11.52;100.00
19447;BME280;9862;49.462;11.054;2023-03-14T06:32:40;96152.91;;;11.56;100.00
19447;BME280;9862;49.462;11.054;2023-03-14T06:35:07;96148.16;;;11.68;100.00
19447;BME280;9862;49.462;11.054;2023-03-14T06:37:34;96142.78;;;11.58;100.00
19447;BME280;9862;49.462;11.054;2023-03-14T06:40:00;96147.03;;;11.54;100.00
19447;BME280;9862;49.462;11.054;2023-03-14T06:42:27;96137.44;;;11.58;100.00
19447;BME280;9862;49.462;11.054;2023-03-14T06:44:55;96142.53;;;11.59;100.00
19447;BME280;9862;49.462;11.054;2023-03-14T06:47:21;96151.28;;;11.55;100.00
19447;BME280;9862;49.462;11.054;2023-03-14T06:49:48;96139.59;;;11.66;100.00
19447;BME280;9862;49.462;11.054;2023-03-14T06:52:14;96141.72;;;11.59;100.00
19447;BME280;9862;49.462;11.054;2023-03-14T06:54:41;96149.97;;;11.57;100.00
19447;BME280;9862;49.462;11.054;2023-03-14T06:57:07;96156.09;;;11.58;100.00
19447;BME280;9862;49.462;11.054;2023-03-14T06:59:34;96165.72;;;11.59;100.00
19447;BME280;9862;49.462;11.054;2023-03-14T07:02:02;96162.53;;;11.67;100.00
19447;BME280;9862;49.462;11.054;2023-03-14T07:04:28;96172.16;;;11.68;100.00
19447;BME280;9862;49.462;11.054;2023-03-14T07:06:55;96163.84;;;11.64;100.00
19447;BME280;9862;49.462;11.054;2023-03-14T07:09:21;96167.59;;;11.63;100.00
19447;BME280;9862;49.462;11.054;2023-03-14T07:11:48;96166.25;;;11.66;100.00
19447;BME280;9862;49.462;11.054;2023-03-14T07:14:14;96165.75;;;11.69;100.00
19447;BME280;9862;49.462;11.054;2023-03-14T07:16:41;96170.00;;;11.75;100.00
19447;BME280;9862;49.462;11.054;2023-03-14T07:19:09;96164.69;;;11.70;100.00
19447;BME280;9862;49.462;11.054;2023-03-14T07:21:35;96168.41;;;11.74;100.00
19447;BME280;9862;49.462;11.054;2023-03-14T07:24:02;96162.81;;;11.75;100.00
19447;BME280;9862;49.462;11.054;2023-03-14T07:26:29;96164.69;;;11.75;100.00
19447;BME280;9862;49.462;11.054;2023-03-14T07:28:55;96165.53;;;11.81;100.00
19447;BME280;9862;49.462;11.054;2023-03-14T07:31:22;96156.22;;;11.83;100.00
19447;BME280;9862;49.462;11.054;2023-03-14T07:33:49;96164.75;;;11.85;100.00
19447;BME280;9862;49.462;11.054;2023-03-14T07:36:17;96166.06;;;11.78;100.00
19447;BME280;9862;49.462;11.054;2023-03-14T07:38:43;96165.28;;;11.82;100.00
19447;BME280;9862;49.462;11.054;2023-03-14T07:41:10;96155.16;;;11.84;100.00
19447;BME280;9862;49.462;11.054;2023-03-14T07:43:36;96157.22;;;11.77;100.00
19447;BME280;9862;49.462;11.054;2023-03-14T07:46:03;96167.88;;;11.72;100.00
19447;BME280;9862;49.462;11.054;2023-03-14T07:48:30;96158.84;;;11.78;100.00
19447;BME280;9862;49.462;11.054;2023-03-14T07:50:57;96152.97;;;11.71;100.00
19447;BME280;9862;49.462;11.054;2023-03-14T07:53:25;96165.78;;;11.79;100.00
19447;BME280;9862;49.462;11.054;2023-03-14T07:55:52;96159.34;;;11.75;100.00
19447;BME280;9862;49.462;11.054;2023-03-14T07:58:19;96161.81;;;11.82;100.00
19447;BME280;9862;49.462;11.054;2023-03-14T08:00:47;96161.31;;;11.90;100.00
19447;BME280;9862;49.462;11.054;2023-03-14T08:03:13;96162.66;;;11.87;100.00
19447;BME280;9862;49.462;11.054;2023-03-14T08:05:40;96159.97;;;11.92;100.00
19447;BME280;9862;49.462;11.054;2023-03-14T08:08:07;96169.06;;;12.01;100.00
19447;BME280;9862;49.462;11.054;2023-03-14T08:10:35;96162.66;;;11.97;100.00
19447;BME280;9862;49.462;11.054;2023-03-14T08:13:01;96161.56;;;11.93;100.00
19447;BME280;9862;49.462;11.054;2023-03-14T08:15:30;96167.69;;;11.94;100.00
19447;BME280;9862;49.462;11.054;2023-03-14T08:17:57;96161.88;;;12.07;100.00
19447;BME280;9862;49.462;11.054;2023-03-14T08:20:25;96153.88;;;12.07;100.00
19447;BME280;9862;49.462;11.054;2023-03-14T08:22:54;96144.53;;;12.04;100.00
19447;BME280;9862;49.462;11.054;2023-03-14T08:25:21;96142.66;;;12.00;100.00
19447;BME280;9862;49.462;11.054;2023-03-14T08:27:49;96137.06;;;12.01;100.00
19447;BME280;9862;49.462;11.054;2023-03-14T08:30:16;96139.75;;;12.12;100.00
19447;BME280;9862;49.462;11.054;2023-03-14T08:32:43;96140.28;;;12.24;100.00
19447;BME280;9862;49.462;11.054;2023-03-14T08:35:11;96137.09;;;12.22;100.00
19447;BME280;9862;49.462;11.054;2023-03-14T08:37:37;96130.72;;;12.28;100.00
19447;BME280;9862;49.462;11.054;2023-03-14T08:40:06;96136.56;;;12.40;100.00
19447;BME280;9862;49.462;11.054;2023-03-14T08:42:35;96128.81;;;12.33;100.00
19447;BME280;9862;49.462;11.054;2023-03-14T08:45:04;96134.19;;;12.39;100.00
19447;BME280;9862;49.462;11.054;2023-03-14T08:47:31;96125.38;;;12.48;100.00
19447;BME280;9862;49.462;11.054;2023-03-14T08:49:58;96130.69;;;12.43;100.00
19447;BME280;9862;49.462;11.054;2023-03-14T08:52:24;96122.72;;;12.48;100.00
19447;BME280;9862;49.462;11.054;2023-03-14T08:54:51;96132.31;;;12.59;100.00
19447;BME280;9862;49.462;11.054;2023-03-14T08:57:18;96130.16;;;12.51;100.00
19447;BME280;9862;49.462;11.054;2023-03-14T08:59:44;96129.63;;;12.44;100.00
19447;BME280;9862;49.462;11.054;2023-03-14T09:02:12;96128.56;;;12.40;100.00
19447;BME280;9862;49.462;11.054;2023-03-14T09:04:39;96128.56;;;12.40;100.00
19447;BME280;9862;49.462;11.054;2023-03-14T09:07:05;96118.94;;;12.54;100.00
19447;BME280;9862;49.462;11.054;2023-03-14T09:09:32;96120.84;;;12.59;100.00
19447;BME280;9862;49.462;11.054;2023-03-14T09:11:58;96122.16;;;12.72;100.00
19447;BME280;9862;49.462;11.054;2023-03-14T09:14:25;96109.91;;;12.66;100.00
19447;BME280;9862;49.462;11.054;2023-03-14T09:16:52;96104.28;;;12.67;100.00
19447;BME280;9862;49.462;11.054;2023-03-14T09:19:20;96116.81;;;12.61;100.00
19447;BME280;9862;49.462;11.054;2023-03-14T09:21:46;96109.91;;;12.66;100.00
19447;BME280;9862;49.462;11.054;2023-03-14T09:24:14;96107.22;;;12.60;100.00
19447;BME280;9862;49.462;11.054;2023-03-14T09:26:40;96117.38;;;12.48;100.00
19447;BME280;9862;49.462;11.054;2023-03-14T09:29:07;96106.69;;;12.43;100.00
19447;BME280;9862;49.462;11.054;2023-03-14T09:31:33;96104.81;;;12.54;100.00
19447;BME280;9862;49.462;11.054;2023-03-14T09:34:00;96108.00;;;12.61;100.00
19447;BME280;9862;49.462;11.054;2023-03-14T09:36:28;96098.13;;;12.72;100.00
19447;BME280;9862;49.462;11.054;2023-03-14T09:38:55;96107.72;;;12.78;100.00
19447;BME280;9862;49.462;11.054;2023-03-14T09:41:25;96101.88;;;12.71;100.00
19447;BME280;9862;49.462;11.054;2023-03-14T09:44:00;96097.59;;;12.70;100.00
19447;BME280;9862;49.462;11.054;2023-03-14T09:46:29;96117.91;;;12.66;100.00
19447;BME280;9862;49.462;11.054;2023-03-14T09:48:57;96098.66;;;12.64;100.00
19447;BME280;9862;49.462;11.054;2023-03-14T09:51:23;96112.53;;;12.71;100.00
19447;BME280;9862;49.462;11.054;2023-03-14T09:53:52;96116.81;;;12.61;100.00
19447;BME280;9862;49.462;11.054;2023-03-14T09:56:21;96120.56;;;12.66;100.00
19447;BME280;9862;49.462;11.054;2023-03-14T09:58:51;96113.38;;;12.46;100.00
19447;BME280;9862;49.462;11.054;2023-03-14T10:01:24;96108.81;;;12.41;100.00
19447;BME280;9862;49.462;11.054;2023-03-14T10:03:54;96109.63;;;12.52;100.00
19447;BME280;9862;49.462;11.054;2023-03-14T10:06:24;96102.44;;;12.57;100.00
19447;BME280;9862;49.462;11.054;2023-03-14T10:08:54;96110.41;;;12.63;100.00
19447;BME280;9862;49.462;11.054;2023-03-14T10:11:22;96100.28;;;12.59;100.00
19447;BME280;9862;49.462;11.054;2023-03-14T10:14:01;96101.34;;;12.69;100.00
19447;BME280;9862;49.462;11.054;2023-03-14T10:16:30;96095.47;;;12.77;100.00
19447;BME280;9862;49.462;11.054;2023-03-14T10:19:02;96096.00;;;12.84;100.00
19447;BME280;9862;49.462;11.054;2023-03-14T10:21:30;96093.00;;;12.90;100.00
19447;BME280;9862;49.462;11.054;2023-03-14T10:24:15;96084.22;;;12.90;100.00
19447;BME280;9862;49.462;11.054;2023-03-14T10:26:47;96087.16;;;12.88;100.00
19447;BME280;9862;49.462;11.054;2023-03-14T10:29:14;96085.31;;;12.74;100.00
19447;BME280;9862;49.462;11.054;2023-03-14T10:31:50;96086.91;;;12.80;100.00
19447;BME280;9862;49.462;11.054;2023-03-14T10:34:22;96081.81;;;12.88;100.00
19447;BME280;9862;49.462;11.054;2023-03-14T10:36:52;96076.22;;;12.85;100.00
19447;BME280;9862;49.462;11.054;2023-03-14T10:39:34;96078.88;;;12.90;100.00
19447;BME280;9862;49.462;11.054;2023-03-14T10:42:05;96071.94;;;12.89;100.00
19447;BME280;9862;49.462;11.054;2023-03-14T10:44:37;96078.09;;;12.84;100.00
19447;BME280;9862;49.462;11.054;2023-03-14T10:47:05;96081.56;;;12.85;100.00
19447;BME280;9862;49.462;11.054;2023-03-14T10:49:32;96072.19;;;12.93;100.00
19447;BME280;9862;49.462;11.054;2023-03-14T10:52:15;96079.69;;;12.80;100.00
19447;BME280;9862;49.462;11.054;2023-03-14T10:54:46;96085.84;;;12.71;100.00
19447;BME280;9862;49.462;11.054;2023-03-14T10:57:13;96089.56;;;12.80;100.00
19447;BME280;9862;49.462;11.054;2023-03-14T10:59:42;96093.31;;;12.79;100.00
19447;BME280;9862;49.462;11.054;2023-03-14T11:02:20;96084.78;;;12.77;100.00
19447;BME280;9862;49.462;11.054;2023-03-14T11:04:59;96099.69;;;12.83;100.00
19447;BME280;9862;49.462;11.054;2023-03-14T11:07:33;96106.13;;;12.87;100.00
19447;BME280;9862;49.462;11.054;2023-03-14T11:10:11;96105.59;;;12.80;100.00
19447;BME280;9862;49.462;11.054;2023-03-14T11:12:46;96107.75;;;12.68;100.00
19447;BME280;9862;49.462;11.054;2023-03-14T11:15:20;96118.97;;;12.65;100.00
19447;BME280;9862;49.462;11.054;2023-03-14T11:18:00;96112.03;;;12.53;100.00
19447;BME280;9862;49.462;11.054;2023-03-14T11:20:38;96101.88;;;12.50;100.00
19447;BME280;9862;49.462;11.054;2023-03-14T11:23:13;96112.81;;;12.54;100.00
19447;BME280;9862;49.462;11.054;2023-03-14T11:25:51;96125.34;;;12.53;100.00
19447;BME280;9862;49.462;11.054;2023-03-14T11:28:26;96126.97;;;12.39;100.00
19447;BME280;9862;49.462;11.054;2023-03-14T11:31:02;96121.09;;;12.22;100.00
19447;BME280;9862;49.462;11.054;2023-03-14T11:33:36;96105.91;;;12.17;100.00
19447;BME280;9862;49.462;11.054;2023-03-14T11:36:06;96113.09;;;12.37;100.00
19447;BME280;9862;49.462;11.054;2023-03-14T11:38:38;96107.75;;;12.57;100.00
19447;BME280;9862;49.462;11.054;2023-03-14T11:41:12;96110.13;;;12.64;100.00
19447;BME280;9862;49.462;11.054;2023-03-14T11:43:41;96093.84;;;12.86;100.00
19447;BME280;9862;49.462;11.054;2023-03-14T11:46:11;96090.91;;;12.87;100.00
19447;BME280;9862;49.462;11.054;2023-03-14T11:48:45;96074.66;;;12.64;100.00
19447;BME280;9862;49.462;11.054;2023-03-14T11:51:21;96075.69;;;12.78;100.00
19447;BME280;9862;49.462;11.054;2023-03-14T11:53:55;96061.53;;;12.82;100.00
19447;BME280;9862;49.462;11.054;2023-03-14T11:56:31;96060.69;;;12.92;100.00
19447;BME280;9862;49.462;11.054;2023-03-14T11:59:02;96061.03;;;12.75;100.00
19447;BME280;9862;49.462;11.054;2023-03-14T12:01:40;96060.47;;;12.78;100.00
19447;BME280;9862;49.462;11.054;2023-03-14T12:04:15;96056.47;;;12.86;100.00
19447;BME280;9862;49.462;11.054;2023-03-14T12:06:48;96055.38;;;12.92;100.00
19447;BME280;9862;49.462;11.054;2023-03-14T12:09:16;96055.31;;;13.07;100.00
19447;BME280;9862;49.462;11.054;2023-03-14T12:11:47;96052.09;;;13.21;100.00
19447;BME280;9862;49.462;11.054;2023-03-14T12:14:20;96051.50;;;13.34;100.00
19447;BME280;9862;49.462;11.054;2023-03-14T12:16:48;96042.31;;;13.55;100.00
19447;BME280;9862;49.462;11.054;2023-03-14T12:19:26;96050.47;;;13.74;100.00
19447;BME280;9862;49.462;11.054;2023-03-14T12:21:57;96037.53;;;13.52;100.00
19447;BME280;9862;49.462;11.054;2023-03-14T12:24:27;96043.41;;;13.49;100.00
19447;BME280;9862;49.462;11.054;2023-03-14T12:26:58;96050.31;;;13.55;100.00
19447;BME280;9862;49.462;11.054;2023-03-14T12:29:25;96046.34;;;13.53;100.00
19447;BME280;9862;49.462;11.054;2023-03-14T12:32:07;96040.22;;;13.47;100.00
19447;BME280;9862;49.462;11.054;2023-03-14T12:34:39;96036.44;;;13.53;100.00
19447;BME280;9862;49.462;11.054;2023-03-14T12:37:21;96036.97;;;13.55;100.00
19447;BME280;9862;49.462;11.054;2023-03-14T12:39:58;96024.31;;;13.71;100.00
19447;BME280;9862;49.462;11.054;2023-03-14T12:42:45;96027.72;;;13.77;100.00
19447;BME280;9862;49.462;11.054;2023-03-14T12:45:25;96033.66;;;13.73;100.00
19447;BME280;9862;49.462;11.054;2023-03-14T12:48:00;96023.53;;;13.65;100.00
19447;BME280;9862;49.462;11.054;2023-03-14T12:50:35;96012.81;;;13.70;100.00
19447;BME280;9862;49.462;11.054;2023-03-14T12:53:19;96013.06;;;13.69;100.00
19447;BME280;9862;49.462;11.054;2023-03-14T12:55:52;96012.34;;;13.63;100.00
19447;BME280;9862;49.462;11.054;2023-03-14T12:58:28;96031.00;;;13.68;100.00
19447;BME280;9862;49.462;11.054;2023-03-14T13:00:57;96030.88;;;13.44;100.00
19447;BME280;9862;49.462;11.054;2023-03-14T13:03:36;96055.41;;;12.82;100.00
19447;BME280;9862;49.462;11.054;2023-03-14T13:06:03;96075.75;;;12.42;100.00